Time;durP1;ratioP1;P1;durP2;ratioP2;P2;SDS_P1;SDS_P2;PMS_P1;PMS_P2;Temp;Humidity;BMP_temperature;BMP_pressure;BME280_temperature;BME280_humidity;BME280_pressure;Samples;Min_cycle;Max_cycle;Signal;HPM_P1;HPM_P2
2023/02/23 00:00:26;;;;;;;13.70;6.13;;;;;;;-12.43;57.72;99745.75;5039994;28;20039;-59
2023/02/23 00:02:52;;;;;;;;;;;;;;;-12.22;57.51;99760.59;5052989;28;20036;-54
2023/02/23 00:05:21;;;;;;;14.68;5.30;;;;;;;-12.52;57.90;99735.34;5039689;28;19916;-53
2023/02/23 00:07:46;;;;;;;10.25;5.28;;;;;;;-12.46;58.15;99762.06;5031749;28;20048;-56
2023/02/23 00:10:13;;;;;;;15.55;5.43;;;;;;;-12.42;57.85;99773.28;5032345;28;20030;-52
2023/02/23 00:12:41;;;;;;;12.32;5.18;;;;;;;-12.48;58.25;99773.22;5032192;28;20034;-51
2023/02/23 00:15:08;;;;;;;12.90;5.60;;;;;;;-12.48;58.23;99784.41;5032749;28;20453;-57
2023/02/23 00:17:35;;;;;;;12.13;5.13;;;;;;;-12.53;57.67;99770.59;5032735;28;20040;-56
2023/02/23 00:20:08;;;;;;;13.27;5.60;;;;;;;-12.53;58.29;99767.16;5032222;28;20091;-56
2023/02/23 00:22:34;;;;;;;12.63;6.03;;;;;;;-12.49;58.00;99787.81;5031365;28;20036;-57
2023/02/23 00:24:59;;;;;;;13.27;5.28;;;;;;;-12.52;57.89;99776.63;5042744;28;20036;-52
2023/02/23 00:27:25;;;;;;;13.20;5.57;;;;;;;-12.47;58.06;99796.44;5052136;28;20104;-63
2023/02/23 00:29:51;;;;;;;13.07;5.50;;;;;;;-12.53;58.33;99793.81;5037884;28;20041;-54
2023/02/23 00:32:18;;;;;;;15.15;5.57;;;;;;;-12.51;58.21;99786.09;5031548;28;20086;-54
2023/02/23 00:34:48;;;;;;;15.25;6.53;;;;;;;-12.51;58.30;99799.00;5032069;28;20030;-52
2023/02/23 00:37:15;;;;;;;14.48;6.25;;;;;;;-12.50;58.33;99790.41;5031947;28;20037;-56
2023/02/23 00:39:40;;;;;;;15.02;5.47;;;;;;;-12.63;58.19;99773.91;5030215;28;20055;-61
2023/02/23 00:42:06;;;;;;;14.15;5.85;;;;;;;-12.49;58.16;99789.56;5030670;28;20061;-54
2023/02/23 00:44:35;;;;;;;15.18;6.18;;;;;;;-12.45;57.74;99799.91;5028970;28;20124;-54
2023/02/23 00:47:01;;;;;;;14.20;6.18;;;;;;;-12.72;58.13;99757.44;5032105;28;20034;-54
2023/02/23 00:49:26;;;;;;;12.38;5.53;;;;;;;-12.66;57.95;99779.00;5032388;28;20040;-58
2023/02/23 00:51:52;;;;;;;15.13;6.10;;;;;;;-12.47;57.88;99811.06;5035228;28;20033;-56
2023/02/23 00:54:20;;;;;;;12.38;5.50;;;;;;;-12.45;57.87;99814.53;5049899;28;20040;-52
2023/02/23 00:56:46;;;;;;;10.32;5.25;;;;;;;-12.59;58.31;99794.56;5056213;28;20040;-57
2023/02/23 00:59:12;;;;;;;13.23;5.90;;;;;;;-12.48;58.38;99807.63;5054664;28;20044;-54
2023/02/23 01:01:40;;;;;;;19.17;6.03;;;;;;;-12.47;57.74;99816.25;5054533;28;20033;-57
2023/02/23 01:04:06;;;;;;;12.23;5.82;;;;;;;-12.52;57.58;99812.75;5056077;28;20432;-54
2023/02/23 01:06:32;;;;;;;15.32;6.10;;;;;;;-12.51;57.87;99819.63;5055628;28;20029;-55
2023/02/23 01:08:57;;;;;;;13.55;5.95;;;;;;;-12.60;58.09;99808.31;5055748;28;20116;-58
2023/02/23 01:11:27;;;;;;;12.38;5.47;;;;;;;-12.56;58.48;99815.25;5054333;28;20057;-51
2023/02/23 01:13:55;;;;;;;12.38;6.05;;;;;;;-12.61;58.33;99809.16;5056323;28;20406;-51
2023/02/23 01:16:26;;;;;;;15.38;6.13;;;;;;;-12.57;58.38;99818.69;5054554;28;20036;-53
2023/02/23 01:18:54;;;;;;;16.02;5.82;;;;;;;-12.51;58.13;99827.38;5037661;28;20059;-52
2023/02/23 01:21:26;;;;;;;14.45;5.72;;;;;;;-12.58;57.92;99822.09;5034926;28;20044;-54
2023/02/23 01:23:52;;;;;;;17.58;5.50;;;;;;;-12.60;58.50;99821.22;5055356;28;20465;-53
2023/02/23 01:26:24;;;;;;;15.50;6.53;;;;;;;-12.79;58.04;99793.44;5054204;28;20044;-58
2023/02/23 01:28:52;;;;;;;11.57;5.55;;;;;;;-12.61;58.18;99829.81;5054377;28;20439;-56
2023/02/23 01:31:20;;;;;;;13.15;6.05;;;;;;;-12.67;58.44;99834.88;5055434;28;20135;-57
2023/02/23 01:33:45;;;;;;;14.38;5.90;;;;;;;-12.69;58.28;99831.41;5054257;28;20039;-54
2023/02/23 01:36:14;;;;;;;12.77;6.07;;;;;;;-12.72;58.34;99821.06;5055110;28;20383;-55
2023/02/23 01:38:40;;;;;;;12.70;6.03;;;;;;;-12.87;58.57;99795.94;5035025;28;20095;-53
2023/02/23 01:41:06;;;;;;;17.92;6.22;;;;;;;-12.92;58.66;99789.84;5035260;28;20033;-53
2023/02/23 01:43:31;;;;;;;16.23;6.32;;;;;;;-12.86;58.31;99810.56;5035561;28;20039;-55
2023/02/23 01:45:57;;;;;;;12.77;5.20;;;;;;;-12.81;58.34;99814.06;5035184;28;20041;-58
2023/02/23 01:48:27;;;;;;;15.05;6.13;;;;;;;-12.88;58.65;99810.53;5033657;28;20495;-58
2023/02/23 01:50:58;;;;;;;13.68;5.95;;;;;;;-12.82;58.75;99814.91;5034853;28;20083;-53
2023/02/23 01:53:27;;;;;;;14.95;6.75;;;;;;;-12.89;58.85;99819.09;5035258;28;20033;-54
2023/02/23 01:55:57;;;;;;;15.27;6.35;;;;;;;-12.92;58.89;99819.06;5035001;28;20107;-52
2023/02/23 01:58:27;;;;;;;12.40;5.95;;;;;;;-12.92;58.68;99829.38;5037936;28;20041;-56
2023/02/23 02:00:55;;;;;;;13.80;5.53;;;;;;;-13.15;59.06;99798.97;5053617;28;20037;-53
2023/02/23 02:03:32;;;;;;;12.45;6.15;;;;;;;-12.92;58.72;99834.53;5055005;28;20460;-52
2023/02/23 02:06:00;;;;;;;17.20;6.00;;;;;;;-12.90;58.76;99827.69;5047427;28;20100;-54
2023/02/23 02:08:29;;;;;;;13.95;5.65;;;;;;;-12.87;58.12;99838.03;5034703;28;20037;-57
2023/02/23 02:10:56;;;;;;;14.82;5.60;;;;;;;-12.92;58.79;99839.69;5034767;28;20061;-51
2023/02/23 02:13:29;;;;;;;12.75;5.35;;;;;;;-12.95;58.72;99842.22;5033496;28;20135;-51
2023/02/23 02:16:42;;;;;;;15.98;5.78;;;;;;;-12.92;58.64;99837.13;5033816;28;20353;-53
2023/02/23 02:19:29;;;;;;;15.57;5.47;;;;;;;-12.93;59.03;99842.22;5045350;28;20037;-55
2023/02/23 02:22:26;;;;;;;11.27;5.65;;;;;;;-12.96;58.75;99850.81;5053970;28;20086;-56
2023/02/23 02:25:23;;;;;;;13.80;5.70;;;;;;;-12.92;58.66;99844.84;5054270;28;20036;-54
2023/02/23 02:28:22;;;;;;;10.95;5.28;;;;;;;-12.96;58.81;99855.97;5053129;28;20452;-53
2023/02/23 02:31:19;;;;;;;16.02;5.90;;;;;;;-12.97;59.04;99864.53;5043341;28;20120;-56
2023/02/23 02:34:10;;;;;;;12.35;5.13;;;;;;;-13.20;58.53;99828.06;5034007;28;20036;-54
2023/02/23 02:36:56;;;;;;;14.20;5.60;;;;;;;-13.03;58.63;99873.03;5034278;28;20136;-56
2023/02/23 02:39:35;;;;;;;14.82;5.90;;;;;;;-13.05;58.90;99879.00;5033810;28;20227;-60
2023/02/23 02:42:08;;;;;;;15.80;6.47;;;;;;;-13.05;58.72;99866.09;5035217;28;20029;-55
2023/02/23 02:45:02;;;;;;;14.15;5.75;;;;;;;-13.04;59.23;99875.56;5034463;28;20048;-60
2023/02/23 02:47:49;;;;;;;14.13;5.07;;;;;;;-13.06;58.73;99866.94;5034210;28;20060;-55
2023/02/23 02:50:29;;;;;;;11.52;5.30;;;;;;;-13.08;58.95;99866.06;5050040;28;20041;-54
2023/02/23 02:53:02;;;;;;;13.50;5.82;;;;;;;-13.10;59.20;99866.06;5054021;28;20029;-56
2023/02/23 02:55:36;;;;;;;14.13;5.70;;;;;;;-13.26;59.21;99844.31;5039781;28;20108;-57
2023/02/23 02:58:06;;;;;;;14.80;5.53;;;;;;;-13.10;59.12;99872.91;5032724;28;20116;-56
2023/02/23 04:17:43;;;;;;;15.90;6.75;;;;;;;-13.67;59.41;99916.59;5031921;28;20368;-51
2023/02/23 04:20:11;;;;;;;19.40;8.20;;;;;;;-13.75;60.01;99912.16;5031328;28;20098;-53
2023/02/23 04:22:36;;;;;;;17.30;6.80;;;;;;;-13.74;59.40;99911.34;5031330;28;20025;-54
2023/02/23 04:25:04;;;;;;;15.48;6.22;;;;;;;-13.69;59.70;99911.41;5032221;28;20033;-54
2023/02/23 04:27:30;;;;;;;19.00;6.65;;;;;;;-13.72;59.52;99913.94;5032118;28;20064;-55
2023/02/23 04:29:55;;;;;;;13.23;6.25;;;;;;;-13.75;59.53;99927.59;5040558;28;20048;-55
2023/02/23 04:32:21;;;;;;;15.30;6.20;;;;;;;-13.75;60.03;99917.31;5052397;28;20400;-53
2023/02/23 04:34:47;;;;;;;14.70;7.03;;;;;;;-13.72;59.63;99925.09;5051549;28;20090;-54
2023/02/23 04:37:12;;;;;;;15.18;6.68;;;;;;;-13.63;58.97;99916.66;5048911;28;20085;-56
2023/02/23 04:39:38;;;;;;;20.52;6.70;;;;;;;-13.69;59.71;99920.84;5052534;28;20037;-55
2023/02/23 04:42:04;;;;;;;12.88;5.63;;;;;;;-13.67;59.43;99919.19;5052077;28;20467;-56
2023/02/23 04:44:29;;;;;;;18.08;7.25;;;;;;;-13.69;59.69;99916.56;5051101;28;20033;-54
2023/02/23 04:46:56;;;;;;;13.60;6.63;;;;;;;-13.64;59.70;99929.53;5052515;28;20029;-57
2023/02/23 04:49:22;;;;;;;16.73;6.25;;;;;;;-13.65;59.76;99912.34;5044968;28;20030;-54
2023/02/23 04:51:48;;;;;;;15.82;6.60;;;;;;;-13.58;59.26;99917.66;5041425;28;20036;-58
2023/02/23 04:54:13;;;;;;;14.25;6.72;;;;;;;-13.50;59.35;99917.78;5031902;28;20426;-56
2023/02/23 04:56:39;;;;;;;16.02;7.13;;;;;;;-13.40;59.18;99934.22;5032188;28;20069;-55
2023/02/23 04:59:04;;;;;;;17.20;6.32;;;;;;;-13.32;59.29;99926.63;5031406;28;20034;-59
2023/02/23 05:01:31;;;;;;;17.35;6.43;;;;;;;-13.10;59.03;99927.03;5041749;28;20116;-59
2023/02/23 05:03:59;;;;;;;17.95;6.63;;;;;;;-12.54;58.90;99933.94;5051969;28;20036;-57
2023/02/23 05:06:24;;;;;;;15.50;6.47;;;;;;;-11.59;57.40;99932.53;5051992;28;20044;-54
2023/02/23 05:08:50;;;;;;;16.08;6.03;;;;;;;-10.79;55.39;99927.28;5048635;28;20029;-57
2023/02/23 05:11:15;;;;;;;14.18;6.50;;;;;;;-10.21;52.82;99931.09;5031894;28;20107;-54
2023/02/23 05:13:41;;;;;;;19.38;7.13;;;;;;;-9.74;51.38;99924.41;5031879;28;20030;-60
2023/02/23 05:16:06;;;;;;;14.18;6.53;;;;;;;-9.75;50.83;99935.63;5032175;28;20029;-51
2023/02/23 05:18:32;;;;;;;14.52;5.95;;;;;;;-10.10;51.39;99928.59;5031385;28;20037;-54
2023/02/23 05:21:06;;;;;;;16.20;6.82;;;;;;;-10.48;52.36;99930.13;5031742;28;20426;-61
2023/02/23 05:23:35;;;;;;;18.63;6.85;;;;;;;-10.72;52.55;99934.25;5032196;28;20033;-57
2023/02/23 05:26:06;;;;;;;13.93;6.45;;;;;;;-10.92;53.26;99939.25;5038097;28;20951;-54
2023/02/23 05:28:34;;;;;;;13.90;6.47;;;;;;;-10.96;53.59;99950.41;5040424;28;20025;-51
2023/02/23 05:31:00;;;;;;;14.98;6.97;;;;;;;-10.83;53.59;99936.75;5040243;28;20433;-53
2023/02/23 05:33:26;;;;;;;18.23;7.03;;;;;;;-9.76;53.75;99949.44;5041646;28;20064;-57
2023/02/23 05:35:51;;;;;;;19.30;6.85;;;;;;;-7.71;49.78;99943.41;5041266;28;20476;-60
2023/02/23 05:38:18;;;;;;;13.38;6.22;;;;;;;-5.11;44.89;99942.75;5045593;28;20428;-55
2023/02/23 05:40:43;;;;;;;12.55;6.45;;;;;;;-2.88;40.77;99944.75;5044357;28;20040;-57
2023/02/23 05:43:09;;;;;;;18.10;7.70;;;;;;;-1.26;37.37;99925.59;5050343;28;20029;-52
2023/02/23 05:45:39;;;;;;;14.32;7.47;;;;;;;0.14;35.16;99932.41;5054876;28;20025;-55
2023/02/23 05:48:05;;;;;;;14.25;7.22;;;;;;;1.18;32.92;99893.38;5053902;28;20025;-53
2023/02/23 05:50:30;;;;;;;17.08;7.95;;;;;;;1.82;32.31;99933.00;5054798;28;20371;-57
2023/02/23 05:52:55;;;;;;;17.38;7.93;;;;;;;2.49;31.39;99930.09;5055274;28;20028;-52
2023/02/23 05:55:21;;;;;;;15.38;7.20;;;;;;;3.48;29.59;99928.06;5055095;28;20032;-51
2023/02/23 05:57:46;;;;;;;17.40;7.88;;;;;;;4.12;28.17;99939.00;5054753;28;20029;-52
2023/02/23 06:00:12;;;;;;;14.98;8.15;;;;;;;4.74;27.50;99927.75;5054226;28;20108;-57
2023/02/23 06:02:38;;;;;;;12.90;7.70;;;;;;;5.41;26.30;99939.13;5054505;28;20116;-54
2023/02/23 06:05:04;;;;;;;14.52;7.80;;;;;;;6.12;25.30;99936.78;5049740;28;20045;-64
2023/02/23 06:07:30;;;;;;;15.85;8.27;;;;;;;6.82;24.27;99901.44;5042955;28;20039;-62
2023/02/23 06:09:56;;;;;;;15.07;8.43;;;;;;;7.82;23.08;99941.16;5054306;28;20032;-63
2023/02/23 06:12:22;;;;;;;16.10;8.77;;;;;;;8.55;22.13;99935.38;5053162;28;20025;-63
2023/02/23 06:14:49;;;;;;;15.30;9.07;;;;;;;9.32;21.49;99935.16;5054470;28;20108;-63
2023/02/23 06:17:15;;;;;;;15.50;9.15;;;;;;;9.87;20.69;99926.63;5054304;28;20055;-62
2023/02/23 06:19:40;;;;;;;15.88;8.75;;;;;;;10.46;20.08;99934.69;5054397;28;20037;-63
2023/02/23 06:22:06;;;;;;;14.95;9.13;;;;;;;10.83;19.61;99945.19;5054441;28;20086;-62
2023/02/23 06:24:33;;;;;;;19.20;9.45;;;;;;;11.13;18.57;99908.00;5052250;28;20025;-63
2023/02/23 06:26:59;;;;;;;14.55;9.32;;;;;;;11.83;18.13;99937.09;5035039;28;20068;-63
2023/02/23 06:29:25;;;;;;;13.05;8.63;;;;;;;12.23;17.56;99935.56;5054232;28;20056;-64
2023/02/23 06:31:50;;;;;;;14.45;8.95;;;;;;;12.68;16.84;99939.78;5053704;28;20072;-63
2023/02/23 06:34:16;;;;;;;17.77;9.45;;;;;;;13.19;16.24;99932.56;5054139;28;20408;-64
2023/02/23 06:36:41;;;;;;;13.23;9.07;;;;;;;13.31;16.10;99907.28;5045072;28;20052;-62
2023/02/23 06:39:10;;;;;;;15.73;9.43;;;;;;;13.99;16.04;99942.44;5032751;28;20111;-63
2023/02/23 06:41:35;;;;;;;12.70;8.73;;;;;;;14.34;15.21;99949.88;5032988;28;20033;-63
2023/02/23 06:44:00;;;;;;;15.25;8.57;;;;;;;14.62;14.52;99908.66;5034138;28;20429;-63
2023/02/23 06:46:26;;;;;;;15.05;9.27;;;;;;;15.25;14.43;99939.47;5032802;28;20029;-63
2023/02/23 06:48:55;;;;;;;13.35;9.10;;;;;;;15.60;14.22;99940.47;5048084;28;20058;-63
2023/02/23 06:51:21;;;;;;;12.27;8.98;;;;;;;15.53;13.66;99915.13;5052965;28;20051;-63
2023/02/23 06:53:46;;;;;;;13.50;9.20;;;;;;;15.74;13.38;99939.09;5052709;28;20024;-66
2023/02/23 06:56:12;;;;;;;12.35;8.77;;;;;;;15.87;13.20;99943.25;5053278;28;20473;-63
2023/02/23 06:58:39;;;;;;;12.48;8.98;;;;;;;16.00;13.07;99945.59;5053731;28;20048;-64
2023/02/23 07:01:05;;;;;;;13.88;9.25;;;;;;;16.34;12.72;99961.03;5043046;28;20044;-63
2023/02/23 07:03:31;;;;;;;13.70;10.05;;;;;;;16.75;12.46;99947.78;5033254;28;20042;-62
2023/02/23 07:05:56;;;;;;;12.35;9.95;;;;;;;17.06;11.84;99933.72;5032992;28;20026;-63
2023/02/23 07:08:22;;;;;;;14.55;9.15;;;;;;;17.32;11.72;99945.47;5049061;28;20029;-63
2023/02/23 07:10:47;;;;;;;14.07;9.85;;;;;;;17.59;11.29;99944.34;5052225;28;20060;-65
2023/02/23 07:13:13;;;;;;;13.35;9.60;;;;;;;17.86;11.05;99942.34;5053352;28;20059;-63
2023/02/23 07:15:40;;;;;;;14.10;10.10;;;;;;;17.90;11.29;99949.13;5052863;28;20033;-62
2023/02/23 07:18:05;;;;;;;15.88;9.38;;;;;;;17.45;11.43;99934.19;5047819;28;20047;-63
2023/02/23 07:20:32;;;;;;;13.80;10.15;;;;;;;17.51;11.42;99957.88;5043802;28;20436;-64
2023/02/23 07:22:59;;;;;;;16.63;10.00;;;;;;;17.78;10.83;99940.50;5042043;28;20033;-63
2023/02/23 07:25:26;;;;;;;14.45;10.20;;;;;;;18.21;10.88;99958.47;5042848;28;20090;-63
2023/02/23 07:27:55;;;;;;;14.65;10.20;;;;;;;18.25;10.82;99956.25;5041174;28;20385;-64
2023/02/23 07:30:23;;;;;;;14.88;10.60;;;;;;;18.43;10.65;99970.47;5042952;28;20118;-63
2023/02/23 07:32:50;;;;;;;13.98;10.40;;;;;;;18.08;10.76;99934.56;5041195;28;20053;-67
2023/02/23 07:35:15;;;;;;;12.98;9.50;;;;;;;17.88;10.64;99962.00;5042941;28;20368;-66
2023/02/23 07:37:41;;;;;;;13.20;8.95;;;;;;;18.01;10.64;99966.94;5043093;28;20033;-64
2023/02/23 07:40:08;;;;;;;11.77;9.23;;;;;;;17.74;10.62;99968.06;5040922;28;20045;-64
2023/02/23 07:42:33;;;;;;;15.20;10.10;;;;;;;17.72;10.54;99970.09;5040382;28;20026;-64
2023/02/23 07:44:59;;;;;;;12.55;9.60;;;;;;;17.62;10.89;99976.53;5042131;28;20044;-63
2023/02/23 07:47:29;;;;;;;13.80;9.90;;;;;;;17.58;10.51;99974.31;5039254;28;20060;-63
2023/02/23 07:49:56;;;;;;;14.10;10.60;;;;;;;17.36;10.72;99980.19;5034289;28;20038;-64
2023/02/23 07:52:22;;;;;;;15.25;10.23;;;;;;;17.10;10.78;99974.84;5051555;28;20052;-62
2023/02/23 07:54:47;;;;;;;14.30;9.82;;;;;;;16.86;11.02;99973.69;5052725;28;20056;-64
2023/02/23 07:57:13;;;;;;;13.50;10.00;;;;;;;15.80;11.91;99967.31;5042495;28;20466;-64
2023/02/23 07:59:38;;;;;;;14.38;9.60;;;;;;;13.88;12.95;99963.09;5034170;28;20312;-64
2023/02/23 08:02:04;;;;;;;14.48;9.57;;;;;;;11.33;14.70;99957.28;5032577;28;20033;-64
2023/02/23 08:04:29;;;;;;;14.93;9.65;;;;;;;9.07;16.61;99967.31;5036031;28;20041;-64
2023/02/23 08:06:55;;;;;;;14.48;9.77;;;;;;;6.91;18.47;99960.38;5048486;28;20039;-63
2023/02/23 08:09:20;;;;;;;14.88;8.68;;;;;;;4.95;20.60;99969.13;5031998;28;20036;-67
2023/02/23 08:11:45;;;;;;;19.10;10.23;;;;;;;3.49;21.66;99980.06;5040044;28;20444;-63
2023/02/23 08:14:11;;;;;;;13.85;9.25;;;;;;;1.85;23.51;99977.75;5033159;28;20376;-62
2023/02/23 08:16:37;;;;;;;15.50;9.60;;;;;;;0.30;26.60;99968.75;5030634;28;20444;-62
2023/02/23 08:19:02;;;;;;;14.75;8.75;;;;;;;-0.66;27.14;99966.72;5029975;28;20037;-62
2023/02/23 08:21:30;;;;;;;15.05;8.05;;;;;;;-1.40;28.55;99970.66;5029947;28;20026;-64
2023/02/23 08:23:56;;;;;;;13.90;8.32;;;;;;;-1.93;29.17;99979.13;5029337;28;20498;-64
2023/02/23 08:26:24;;;;;;;16.33;8.50;;;;;;;-2.48;30.75;99971.75;5030104;28;20056;-65
2023/02/23 08:28:50;;;;;;;15.98;8.23;;;;;;;-2.76;30.94;99981.13;5030839;28;20103;-62
2023/02/23 08:31:19;;;;;;;12.68;7.55;;;;;;;-2.99;32.40;99978.19;5031555;28;20391;-63
2023/02/23 08:33:45;;;;;;;14.93;7.53;;;;;;;-3.30;32.57;99982.31;5030728;28;20033;-63
2023/02/23 08:36:11;;;;;;;16.85;7.75;;;;;;;-3.47;32.54;99991.41;5032064;28;20062;-62
2023/02/23 08:38:36;;;;;;;17.00;8.23;;;;;;;-3.59;33.71;99986.41;5031287;28;20045;-64
2023/02/23 08:41:03;;;;;;;15.98;8.07;;;;;;;-3.66;32.71;99983.03;5014629;28;20033;-61
2023/02/23 08:43:29;;;;;;;16.30;7.57;;;;;;;-3.91;33.41;99959.94;5037022;28;20025;-63
2023/02/23 08:45:54;;;;;;;15.50;8.35;;;;;;;-3.80;33.92;99992.91;5052121;28;20044;-60
2023/02/23 08:48:21;;;;;;;16.67;8.50;;;;;;;-3.74;34.07;99995.41;5038756;28;20057;-61
2023/02/23 08:50:48;;;;;;;16.77;8.05;;;;;;;-3.81;34.14;99999.03;5031861;28;20106;-61
2023/02/23 08:53:17;;;;;;;14.88;7.60;;;;;;;-3.72;34.66;99998.84;5047760;28;20029;-61
2023/02/23 08:55:43;;;;;;;15.95;8.13;;;;;;;-3.66;33.56;100009.19;5052305;28;20033;-63
2023/02/23 08:58:09;;;;;;;14.07;7.80;;;;;;;-3.72;33.69;100009.31;5051598;28;20032;-63
2023/02/23 09:00:38;;;;;;;13.93;7.40;;;;;;;-3.96;35.20;99998.41;5051608;28;20079;-61
2023/02/23 09:03:05;;;;;;;13.60;7.05;;;;;;;-4.21;35.31;100000.63;5049789;28;20527;-63
2023/02/23 09:05:31;;;;;;;12.18;6.88;;;;;;;-4.35;35.30;99965.09;5049665;28;20033;-61
2023/02/23 09:07:57;;;;;;;13.32;6.95;;;;;;;-4.05;34.41;99985.53;5051300;28;20025;-59
2023/02/23 09:10:26;;;;;;;18.25;7.63;;;;;;;-4.01;35.10;99986.31;5051896;28;20036;-61
2023/02/23 09:12:52;;;;;;;15.95;8.38;;;;;;;-3.97;35.29;99999.31;5055203;28;20025;-62
2023/02/23 09:15:17;;;;;;;15.18;7.40;;;;;;;-3.90;35.21;99987.00;5046788;28;20041;-60
2023/02/23 09:17:43;;;;;;;15.32;7.38;;;;;;;-3.65;34.86;99991.75;5034466;28;20511;-61
2023/02/23 09:20:12;;;;;;;13.88;6.72;;;;;;;-3.44;34.58;99989.59;5035308;28;20041;-62
2023/02/23 09:22:39;;;;;;;13.18;7.28;;;;;;;-3.35;34.58;99995.53;5035655;28;20120;-64
2023/02/23 09:25:05;;;;;;;14.10;7.10;;;;;;;-3.41;35.34;99972.06;5036811;28;20029;-61
2023/02/23 09:27:31;;;;;;;13.55;6.85;;;;;;;-3.35;34.70;99979.81;5055177;28;20036;-59
2023/02/23 09:29:56;;;;;;;13.25;6.93;;;;;;;-3.31;35.09;99977.97;5054925;28;20040;-59
2023/02/23 09:32:22;;;;;;;12.70;6.40;;;;;;;-3.32;34.45;99984.97;5055808;28;20112;-62
2023/02/23 09:34:48;;;;;;;13.48;6.78;;;;;;;-3.38;35.27;99982.47;5054307;28;20036;-63
2023/02/23 09:37:14;;;;;;;10.98;6.53;;;;;;;-3.49;34.82;99979.22;5055401;28;20064;-61
2023/02/23 09:39:39;;;;;;;13.02;7.00;;;;;;;-3.63;35.48;99982.13;5033288;28;20189;-64
2023/02/23 09:42:27;;;;;;;13.27;6.53;;;;;;;-3.62;35.23;99970.75;5035201;28;20041;-60
2023/02/23 09:45:13;;;;;;;12.98;6.57;;;;;;;-3.56;35.92;99978.47;5036146;28;20116;-59
2023/02/23 09:47:58;;;;;;;12.57;6.10;;;;;;;-3.47;35.06;99982.66;5054636;28;20044;-62
2023/02/23 09:50:27;;;;;;;12.38;6.68;;;;;;;-3.53;35.04;99978.41;5055220;28;20139;-61
2023/02/23 09:53:08;;;;;;;13.75;6.85;;;;;;;-3.63;35.46;99967.25;5054641;28;20025;-59
2023/02/23 09:55:36;;;;;;;14.02;6.82;;;;;;;-3.54;35.92;99987.16;5054787;28;20036;-62
2023/02/23 09:58:07;;;;;;;13.48;7.00;;;;;;;-3.46;35.88;99976.53;5054402;28;20025;-64
2023/02/23 10:00:39;;;;;;;12.05;6.90;;;;;;;-3.33;36.02;99966.69;5052669;28;20067;-63
2023/02/23 10:03:25;;;;;;;16.08;7.57;;;;;;;-3.23;35.80;99959.50;5052452;28;20056;-58
2023/02/23 10:06:00;;;;;;;11.30;6.13;;;;;;;-3.35;35.45;99964.09;5034855;28;20049;-60
2023/02/23 10:08:47;;;;;;;13.77;6.40;;;;;;;-3.40;35.54;99954.63;5034868;28;20117;-61
2023/02/23 10:11:40;;;;;;;17.15;6.57;;;;;;;-3.44;35.99;99961.66;5033882;28;20056;-60
2023/02/23 10:14:15;;;;;;;15.20;7.13;;;;;;;-3.46;35.94;99972.19;5034281;28;20421;-59
2023/02/23 10:17:16;;;;;;;13.25;6.60;;;;;;;-3.44;35.78;99966.91;5034254;28;20033;-57
2023/02/23 10:20:00;;;;;;;10.05;6.30;;;;;;;-3.49;36.31;99968.75;5050299;28;20143;-60
2023/02/23 10:22:27;;;;;;;12.43;6.10;;;;;;;-3.52;36.99;99958.34;5054333;28;20447;-62
2023/02/23 10:25:01;;;;;;;10.25;6.45;;;;;;;-3.49;36.74;99967.00;5054363;28;20426;-61
2023/02/23 10:27:37;;;;;;;11.07;6.03;;;;;;;-3.48;35.92;99957.38;5051586;28;20039;-62
2023/02/23 10:30:03;;;;;;;12.93;6.47;;;;;;;-3.63;35.88;99956.78;5034334;28;20056;-61
2023/02/23 10:32:50;;;;;;;12.13;6.10;;;;;;;-3.63;36.02;99955.94;5034520;28;20341;-60
2023/02/23 10:35:19;;;;;;;;;;;;;;;-3.46;35.26;99952.97;5034565;28;20049;-61
2023/02/23 10:37:46;;;;;;;10.43;5.72;;;;;;;-3.58;36.47;99953.25;5035981;28;20568;-62
2023/02/23 10:40:19;;;;;;;14.85;6.50;;;;;;;-3.58;36.42;99968.94;5054055;28;20098;-58
2023/02/23 10:42:45;;;;;;;11.95;5.68;;;;;;;-3.68;35.72;99958.66;5054106;28;20036;-63
2023/02/23 10:45:24;;;;;;;11.32;6.03;;;;;;;-3.77;36.14;99958.84;5053812;28;20447;-62
2023/02/23 10:47:57;;;;;;;11.95;6.47;;;;;;;-3.99;36.28;99959.25;5053461;28;20036;-61
2023/02/23 10:50:27;;;;;;;11.45;6.10;;;;;;;-4.06;37.18;99962.88;5054215;28;20075;-62
2023/02/23 10:52:59;;;;;;;14.90;5.85;;;;;;;-3.96;36.83;99959.19;5041503;28;20033;-62
2023/02/23 10:55:30;;;;;;;14.38;6.55;;;;;;;-3.86;36.33;99965.09;5033639;28;20037;-62
2023/02/23 10:58:15;;;;;;;12.63;6.53;;;;;;;-3.79;36.19;99960.63;5039281;28;20427;-63
2023/02/23 11:00:49;;;;;;;;;;;;;;;-3.55;35.88;99953.19;5054155;28;20037;-64
2023/02/23 11:03:32;;;;;;;9.75;5.72;;;;;;;-3.66;36.54;99950.78;5053094;28;20233;-62
2023/02/23 11:05:58;;;;;;;13.48;6.15;;;;;;;-3.68;37.32;99948.19;5047286;28;21089;-61
2023/02/23 11:08:32;;;;;;;11.38;5.75;;;;;;;-3.66;36.53;99949.00;5053834;28;20428;-61
2023/02/23 11:11:04;;;;;;;12.55;6.70;;;;;;;-3.68;36.99;99945.56;5053904;28;20032;-64
2023/02/23 11:13:36;;;;;;;12.30;6.55;;;;;;;-3.69;37.46;99930.75;5052836;28;20029;-63
2023/02/23 11:16:06;;;;;;;12.65;6.88;;;;;;;-3.58;37.68;99935.78;5051014;28;20107;-60
2023/02/23 11:18:31;;;;;;;14.95;7.72;;;;;;;-3.62;37.23;99926.25;5045026;28;20053;-63
2023/02/23 11:20:57;;;;;;;14.10;7.38;;;;;;;-3.65;38.01;99898.38;5053814;28;20101;-62
2023/02/23 11:23:33;;;;;;;16.27;7.07;;;;;;;-3.33;38.03;99927.41;5053131;28;20056;-60
2023/02/23 11:26:21;;;;;;;15.00;7.30;;;;;;;-3.33;38.29;99928.28;5052042;28;20056;-64
2023/02/23 11:28:51;;;;;;;18.17;7.53;;;;;;;-3.37;37.98;99936.22;5038308;28;21093;-64
2023/02/23 11:31:21;;;;;;;17.85;7.75;;;;;;;-3.36;38.22;99936.19;5050720;28;20036;-62
2023/02/23 11:33:47;;;;;;;15.60;7.47;;;;;;;-3.35;37.81;99943.16;5051404;28;20033;-61
2023/02/23 11:36:13;;;;;;;14.88;7.82;;;;;;;-3.37;37.59;99960.66;5052708;28;20056;-62
2023/02/23 11:38:38;;;;;;;13.50;7.38;;;;;;;-3.40;37.85;99946.75;5041049;28;20396;-63
2023/02/23 11:41:16;;;;;;;16.05;7.50;;;;;;;-3.78;38.35;99907.41;5032163;28;20459;-61
2023/02/23 11:43:56;;;;;;;14.45;7.32;;;;;;;-3.58;37.84;99938.38;5032813;28;20022;-64
2023/02/23 11:46:23;;;;;;;19.50;8.63;;;;;;;-3.69;37.97;99922.91;5034416;28;20029;-60
2023/02/23 11:48:53;;;;;;;17.10;7.88;;;;;;;-3.62;38.20;99935.00;5052266;28;20052;-63
2023/02/23 11:51:29;;;;;;;13.55;7.28;;;;;;;-3.66;39.10;99935.06;5051284;28;20082;-62
2023/02/23 11:53:54;;;;;;;;;;;;;;;-3.38;37.30;99931.88;5052838;28;20040;-62
2023/02/23 11:56:24;;;;;;;14.70;6.90;;;;;;;-3.42;38.53;99932.84;5051215;28;19912;-61
2023/02/23 11:58:54;;;;;;;15.07;7.20;;;;;;;-3.56;38.06;99933.97;5051194;28;20060;-59
2023/02/23 12:01:33;;;;;;;14.45;7.07;;;;;;;-3.67;38.69;99928.97;5048746;28;20112;-62
2023/02/23 12:03:59;;;;;;;17.48;6.95;;;;;;;-3.74;38.78;99940.47;5032690;28;20452;-61
2023/02/23 12:06:38;;;;;;;13.15;6.50;;;;;;;-3.93;38.34;99937.34;5032602;28;20032;-61
2023/02/23 12:09:25;;;;;;;13.52;6.97;;;;;;;-4.20;38.73;99929.13;5033323;28;20452;-68
2023/02/23 12:11:57;;;;;;;12.90;7.18;;;;;;;-4.38;38.69;99932.91;5012857;28;20068;-66
2023/02/23 12:14:29;;;;;;;17.13;7.03;;;;;;;-4.42;39.66;99924.28;5043917;28;20033;-61
2023/02/23 12:17:01;;;;;;;11.38;6.35;;;;;;;-4.37;39.41;99925.06;5046573;28;20037;-61
2023/02/23 12:19:36;;;;;;;14.43;6.47;;;;;;;-4.29;39.07;99924.06;5050919;28;20071;-60
2023/02/23 12:22:12;;;;;;;12.88;6.13;;;;;;;-4.27;39.36;99925.75;5052816;28;20471;-60
2023/02/23 12:24:44;;;;;;;15.15;7.15;;;;;;;-4.24;39.37;99933.53;5052045;28;20051;-65
2023/02/23 12:27:15;;;;;;;16.50;6.93;;;;;;;-4.21;39.88;99928.25;5034511;28;20032;-61
2023/02/23 12:30:08;;;;;;;15.45;7.68;;;;;;;-4.19;39.63;99928.25;5038892;28;20029;-59
2023/02/23 12:32:45;;;;;;;16.60;8.07;;;;;;;-4.13;39.96;99929.84;5071299;28;20475;-62
2023/02/23 12:35:15;;;;;;;19.98;8.63;;;;;;;-4.20;39.80;99936.97;5034127;28;20372;-63
2023/02/23 12:37:45;;;;;;;18.25;9.02;;;;;;;-4.20;39.93;99942.22;5052086;28;20037;-63
2023/02/23 12:40:16;;;;;;;18.52;9.18;;;;;;;-4.28;39.89;99933.63;5051785;28;20539;-59
2023/02/23 12:42:50;;;;;;;16.52;8.25;;;;;;;-4.27;40.29;99932.72;5051821;28;20112;-60
2023/02/23 12:45:34;;;;;;;17.13;7.70;;;;;;;-4.23;40.27;99942.22;5042021;28;20029;-62
2023/02/23 12:48:24;;;;;;;18.25;7.95;;;;;;;-4.25;39.71;99939.66;5035696;28;20056;-61
2023/02/23 12:50:56;;;;;;;16.15;7.78;;;;;;;-4.33;39.97;99939.78;5052914;28;20029;-62
2023/02/23 12:53:39;;;;;;;25.50;8.80;;;;;;;-4.37;40.41;99951.19;5056149;28;20414;-61